sensor_id;sensor_type;location;lat;lon;timestamp;P1;durP1;ratioP1;P2;durP2;ratioP2
50789;SDS011;37287;47.554;7.844;2023-04-06T00:01:51;5.88;;;3.15;;
50789;SDS011;37287;47.554;7.844;2023-04-06T00:04:19;5.05;;;3.47;;
50789;SDS011;37287;47.554;7.844;2023-04-06T00:06:46;4.35;;;3.40;;
50789;SDS011;37287;47.554;7.844;2023-04-06T00:09:13;4.60;;;3.13;;
50789;SDS011;37287;47.554;7.844;2023-04-06T00:11:41;3.92;;;3.40;;
50789;SDS011;37287;47.554;7.844;2023-04-06T00:14:11;5.97;;;4.75;;
50789;SDS011;37287;47.554;7.844;2023-04-06T00:16:38;6.30;;;4.57;;
50789;SDS011;37287;47.554;7.844;2023-04-06T00:19:06;4.50;;;3.65;;
50789;SDS011;37287;47.554;7.844;2023-04-06T00:21:33;3.97;;;3.38;;
50789;SDS011;37287;47.554;7.844;2023-04-06T00:24:00;4.28;;;3.30;;
50789;SDS011;37287;47.554;7.844;2023-04-06T00:26:28;4.40;;;2.90;;
50789;SDS011;37287;47.554;7.844;2023-04-06T00:28:54;3.67;;;3.05;;
50789;SDS011;37287;47.554;7.844;2023-04-06T00:31:21;4.35;;;3.63;;
50789;SDS011;37287;47.554;7.844;2023-04-06T00:33:49;4.82;;;3.05;;
50789;SDS011;37287;47.554;7.844;2023-04-06T00:36:16;5.93;;;4.07;;
50789;SDS011;37287;47.554;7.844;2023-04-06T00:38:42;4.35;;;3.30;;
50789;SDS011;37287;47.554;7.844;2023-04-06T00:41:11;5.13;;;3.25;;
50789;SDS011;37287;47.554;7.844;2023-04-06T00:43:38;6.90;;;3.95;;
50789;SDS011;37287;47.554;7.844;2023-04-06T00:46:05;4.90;;;3.80;;
50789;SDS011;37287;47.554;7.844;2023-04-06T00:48:33;3.72;;;2.97;;
50789;SDS011;37287;47.554;7.844;2023-04-06T00:51:00;3.20;;;2.65;;
50789;SDS011;37287;47.554;7.844;2023-04-06T00:53:27;3.45;;;2.90;;
50789;SDS011;37287;47.554;7.844;2023-04-06T00:55:59;6.18;;;3.03;;
50789;SDS011;37287;47.554;7.844;2023-04-06T00:58:25;4.53;;;2.70;;
50789;SDS011;37287;47.554;7.844;2023-04-06T01:00:52;3.38;;;2.75;;
50789;SDS011;37287;47.554;7.844;2023-04-06T01:03:19;3.95;;;2.65;;
50789;SDS011;37287;47.554;7.844;2023-04-06T01:05:45;3.85;;;2.72;;
50789;SDS011;37287;47.554;7.844;2023-04-06T01:08:14;3.00;;;2.53;;
50789;SDS011;37287;47.554;7.844;2023-04-06T01:10:41;2.95;;;2.50;;
50789;SDS011;37287;47.554;7.844;2023-04-06T01:13:08;3.28;;;2.60;;
50789;SDS011;37287;47.554;7.844;2023-04-06T01:15:34;4.57;;;2.85;;
50789;SDS011;37287;47.554;7.844;2023-04-06T01:18:09;3.33;;;2.50;;
50789;SDS011;37287;47.554;7.844;2023-04-06T01:20:39;3.88;;;2.88;;
50789;SDS011;37287;47.554;7.844;2023-04-06T01:23:08;3.80;;;2.72;;
50789;SDS011;37287;47.554;7.844;2023-04-06T01:25:36;3.72;;;2.65;;
50789;SDS011;37287;47.554;7.844;2023-04-06T01:28:03;3.00;;;2.63;;
50789;SDS011;37287;47.554;7.844;2023-04-06T01:30:29;2.78;;;2.40;;
50789;SDS011;37287;47.554;7.844;2023-04-06T01:32:56;4.35;;;2.65;;
50789;SDS011;37287;47.554;7.844;2023-04-06T01:35:23;3.65;;;2.78;;
50789;SDS011;37287;47.554;7.844;2023-04-06T01:37:52;3.63;;;2.72;;
50789;SDS011;37287;47.554;7.844;2023-04-06T01:40:26;3.17;;;2.80;;
50789;SDS011;37287;47.554;7.844;2023-04-06T01:42:53;3.88;;;2.83;;
50789;SDS011;37287;47.554;7.844;2023-04-06T01:45:19;3.42;;;2.63;;
50789;SDS011;37287;47.554;7.844;2023-04-06T01:47:47;4.80;;;3.70;;
50789;SDS011;37287;47.554;7.844;2023-04-06T01:50:14;5.80;;;2.95;;
50789;SDS011;37287;47.554;7.844;2023-04-06T01:52:44;4.32;;;3.00;;
50789;SDS011;37287;47.554;7.844;2023-04-06T01:55:11;2.50;;;2.30;;
50789;SDS011;37287;47.554;7.844;2023-04-06T01:57:38;3.38;;;2.83;;
50789;SDS011;37287;47.554;7.844;2023-04-06T02:00:04;4.15;;;2.85;;
50789;SDS011;37287;47.554;7.844;2023-04-06T02:02:32;3.22;;;2.75;;
50789;SDS011;37287;47.554;7.844;2023-04-06T02:04:59;3.75;;;2.90;;
50789;SDS011;37287;47.554;7.844;2023-04-06T02:07:25;2.70;;;2.30;;
50789;SDS011;37287;47.554;7.844;2023-04-06T02:09:55;3.00;;;2.70;;
50789;SDS011;37287;47.554;7.844;2023-04-06T02:12:22;3.38;;;2.70;;
50789;SDS011;37287;47.554;7.844;2023-04-06T02:14:50;3.85;;;2.97;;
50789;SDS011;37287;47.554;7.844;2023-04-06T02:17:22;3.38;;;2.75;;
50789;SDS011;37287;47.554;7.844;2023-04-06T02:19:49;4.15;;;3.35;;
50789;SDS011;37287;47.554;7.844;2023-04-06T02:22:16;5.00;;;4.07;;
50789;SDS011;37287;47.554;7.844;2023-04-06T02:24:47;4.15;;;3.50;;
50789;SDS011;37287;47.554;7.844;2023-04-06T02:27:14;4.45;;;3.00;;
50789;SDS011;37287;47.554;7.844;2023-04-06T02:29:41;4.88;;;3.33;;
50789;SDS011;37287;47.554;7.844;2023-04-06T02:32:12;4.03;;;3.25;;
50789;SDS011;37287;47.554;7.844;2023-04-06T02:34:38;4.13;;;3.20;;
50789;SDS011;37287;47.554;7.844;2023-04-06T02:37:05;4.50;;;3.13;;
50789;SDS011;37287;47.554;7.844;2023-04-06T02:39:33;4.57;;;3.58;;
50789;SDS011;37287;47.554;7.844;2023-04-06T02:42:00;4.45;;;3.78;;
50789;SDS011;37287;47.554;7.844;2023-04-06T02:44:27;6.95;;;4.30;;
50789;SDS011;37287;47.554;7.844;2023-04-06T02:46:58;5.88;;;4.50;;
50789;SDS011;37287;47.554;7.844;2023-04-06T02:49:25;4.95;;;3.53;;
50789;SDS011;37287;47.554;7.844;2023-04-06T02:51:51;6.13;;;4.40;;
50789;SDS011;37287;47.554;7.844;2023-04-06T02:54:20;8.02;;;4.78;;
50789;SDS011;37287;47.554;7.844;2023-04-06T02:56:47;7.35;;;5.18;;
50789;SDS011;37287;47.554;7.844;2023-04-06T02:59:13;7.38;;;5.63;;
50789;SDS011;37287;47.554;7.844;2023-04-06T03:01:43;6.75;;;5.35;;
50789;SDS011;37287;47.554;7.844;2023-04-06T03:04:09;7.78;;;6.22;;
50789;SDS011;37287;47.554;7.844;2023-04-06T03:06:37;9.45;;;7.25;;
50789;SDS011;37287;47.554;7.844;2023-04-06T03:09:06;10.18;;;6.55;;
50789;SDS011;37287;47.554;7.844;2023-04-06T03:11:35;7.43;;;5.80;;
50789;SDS011;37287;47.554;7.844;2023-04-06T03:14:01;9.02;;;6.95;;
50789;SDS011;37287;47.554;7.844;2023-04-06T03:16:29;9.13;;;6.20;;
50789;SDS011;37287;47.554;7.844;2023-04-06T03:18:56;6.68;;;5.22;;
50789;SDS011;37287;47.554;7.844;2023-04-06T03:21:23;6.22;;;4.78;;
50789;SDS011;37287;47.554;7.844;2023-04-06T03:23:54;8.90;;;6.20;;
50789;SDS011;37287;47.554;7.844;2023-04-06T03:26:20;7.03;;;5.20;;
50789;SDS011;37287;47.554;7.844;2023-04-06T03:28:48;8.65;;;6.57;;
50789;SDS011;37287;47.554;7.844;2023-04-06T03:31:16;10.43;;;6.82;;
50789;SDS011;37287;47.554;7.844;2023-04-06T03:33:43;12.25;;;7.35;;
50789;SDS011;37287;47.554;7.844;2023-04-06T03:36:13;11.48;;;7.20;;
50789;SDS011;37287;47.554;7.844;2023-04-06T03:38:40;9.60;;;6.07;;
50789;SDS011;37287;47.554;7.844;2023-04-06T03:41:06;9.75;;;6.72;;
50789;SDS011;37287;47.554;7.844;2023-04-06T03:43:33;10.07;;;6.57;;
50789;SDS011;37287;47.554;7.844;2023-04-06T03:46:01;9.43;;;7.00;;
50789;SDS011;37287;47.554;7.844;2023-04-06T03:48:28;9.30;;;6.57;;
50789;SDS011;37287;47.554;7.844;2023-04-06T03:50:55;7.78;;;6.15;;
50789;SDS011;37287;47.554;7.844;2023-04-06T03:53:21;8.32;;;5.13;;
50789;SDS011;37287;47.554;7.844;2023-04-06T03:55:48;8.68;;;6.28;;
50789;SDS011;37287;47.554;7.844;2023-04-06T03:58:14;7.68;;;5.57;;
50789;SDS011;37287;47.554;7.844;2023-04-06T04:00:52;8.65;;;5.80;;
50789;SDS011;37287;47.554;7.844;2023-04-06T04:03:19;7.53;;;4.60;;
50789;SDS011;37287;47.554;7.844;2023-04-06T04:05:47;6.97;;;5.40;;
50789;SDS011;37287;47.554;7.844;2023-04-06T04:08:16;9.15;;;5.78;;
50789;SDS011;37287;47.554;7.844;2023-04-06T04:10:43;10.30;;;5.60;;
50789;SDS011;37287;47.554;7.844;2023-04-06T04:13:09;8.52;;;6.18;;
50789;SDS011;37287;47.554;7.844;2023-04-06T04:15:38;8.07;;;5.95;;
50789;SDS011;37287;47.554;7.844;2023-04-06T04:18:04;5.90;;;4.82;;
50789;SDS011;37287;47.554;7.844;2023-04-06T04:20:31;9.02;;;5.40;;
50789;SDS011;37287;47.554;7.844;2023-04-06T04:23:00;7.13;;;4.30;;
50789;SDS011;37287;47.554;7.844;2023-04-06T04:25:26;6.13;;;4.20;;
50789;SDS011;37287;47.554;7.844;2023-04-06T04:27:53;7.07;;;4.07;;
50789;SDS011;37287;47.554;7.844;2023-04-06T04:30:19;6.15;;;4.03;;
50789;SDS011;37287;47.554;7.844;2023-04-06T04:35:19;5.18;;;3.90;;
50789;SDS011;37287;47.554;7.844;2023-04-06T04:37:48;5.93;;;4.38;;
50789;SDS011;37287;47.554;7.844;2023-04-06T04:40:14;4.63;;;3.38;;
50789;SDS011;37287;47.554;7.844;2023-04-06T04:42:42;4.25;;;3.38;;
50789;SDS011;37287;47.554;7.844;2023-04-06T04:45:11;3.40;;;3.05;;
50789;SDS011;37287;47.554;7.844;2023-04-06T04:47:37;5.10;;;3.45;;
50789;SDS011;37287;47.554;7.844;2023-04-06T04:50:04;3.67;;;3.22;;
50789;SDS011;37287;47.554;7.844;2023-04-06T04:52:32;5.75;;;3.67;;
50789;SDS011;37287;47.554;7.844;2023-04-06T04:54:58;4.47;;;3.35;;
50789;SDS011;37287;47.554;7.844;2023-04-06T04:57:25;4.82;;;3.05;;
50789;SDS011;37287;47.554;7.844;2023-04-06T04:59:51;5.07;;;3.63;;
50789;SDS011;37287;47.554;7.844;2023-04-06T05:02:19;3.72;;;3.17;;
50789;SDS011;37287;47.554;7.844;2023-04-06T05:04:46;5.10;;;3.38;;
50789;SDS011;37287;47.554;7.844;2023-04-06T05:07:19;4.43;;;3.13;;
50789;SDS011;37287;47.554;7.844;2023-04-06T05:09:47;6.00;;;3.20;;
50789;SDS011;37287;47.554;7.844;2023-04-06T05:12:16;5.63;;;3.10;;
50789;SDS011;37287;47.554;7.844;2023-04-06T05:14:44;3.67;;;2.78;;
50789;SDS011;37287;47.554;7.844;2023-04-06T05:17:11;3.67;;;3.08;;
50789;SDS011;37287;47.554;7.844;2023-04-06T05:19:37;3.83;;;3.13;;
50789;SDS011;37287;47.554;7.844;2023-04-06T05:22:06;4.53;;;3.65;;
50789;SDS011;37287;47.554;7.844;2023-04-06T05:24:33;4.75;;;3.45;;
50789;SDS011;37287;47.554;7.844;2023-04-06T05:27:01;5.00;;;4.15;;
50789;SDS011;37287;47.554;7.844;2023-04-06T05:29:28;6.40;;;4.30;;
50789;SDS011;37287;47.554;7.844;2023-04-06T05:31:55;6.72;;;4.60;;
50789;SDS011;37287;47.554;7.844;2023-04-06T05:34:22;8.45;;;4.07;;
50789;SDS011;37287;47.554;7.844;2023-04-06T05:36:52;5.40;;;3.80;;
50789;SDS011;37287;47.554;7.844;2023-04-06T05:39:19;4.00;;;3.50;;
50789;SDS011;37287;47.554;7.844;2023-04-06T05:41:47;3.97;;;3.30;;
50789;SDS011;37287;47.554;7.844;2023-04-06T05:44:14;4.45;;;3.38;;
50789;SDS011;37287;47.554;7.844;2023-04-06T05:46:41;4.35;;;3.33;;
50789;SDS011;37287;47.554;7.844;2023-04-06T05:49:08;4.05;;;2.95;;
50789;SDS011;37287;47.554;7.844;2023-04-06T05:51:37;5.30;;;3.67;;
50789;SDS011;37287;47.554;7.844;2023-04-06T05:54:03;4.78;;;3.45;;
50789;SDS011;37287;47.554;7.844;2023-04-06T05:56:30;4.85;;;3.78;;
50789;SDS011;37287;47.554;7.844;2023-04-06T05:59:10;5.80;;;4.13;;
50789;SDS011;37287;47.554;7.844;2023-04-06T06:01:37;4.40;;;3.83;;
50789;SDS011;37287;47.554;7.844;2023-04-06T06:04:03;5.28;;;4.13;;
50789;SDS011;37287;47.554;7.844;2023-04-06T06:06:30;5.10;;;3.47;;
50789;SDS011;37287;47.554;7.844;2023-04-06T06:08:57;5.03;;;3.88;;
50789;SDS011;37287;47.554;7.844;2023-04-06T06:11:27;4.55;;;4.05;;
50789;SDS011;37287;47.554;7.844;2023-04-06T06:13:55;6.47;;;4.40;;
50789;SDS011;37287;47.554;7.844;2023-04-06T06:16:22;4.97;;;3.90;;
50789;SDS011;37287;47.554;7.844;2023-04-06T06:18:49;6.13;;;3.85;;
50789;SDS011;37287;47.554;7.844;2023-04-06T06:21:17;9.27;;;3.92;;
50789;SDS011;37287;47.554;7.844;2023-04-06T06:23:46;5.85;;;4.50;;
50789;SDS011;37287;47.554;7.844;2023-04-06T06:26:14;3.50;;;3.17;;
50789;SDS011;37287;47.554;7.844;2023-04-06T06:28:43;6.75;;;3.42;;
50789;SDS011;37287;47.554;7.844;2023-04-06T06:31:10;6.18;;;3.85;;
50789;SDS011;37287;47.554;7.844;2023-04-06T06:33:37;5.65;;;4.07;;
50789;SDS011;37287;47.554;7.844;2023-04-06T06:36:08;5.15;;;4.07;;
50789;SDS011;37287;47.554;7.844;2023-04-06T06:38:34;8.13;;;4.90;;
50789;SDS011;37287;47.554;7.844;2023-04-06T06:41:01;5.05;;;3.95;;
50789;SDS011;37287;47.554;7.844;2023-04-06T06:43:30;7.95;;;4.50;;
50789;SDS011;37287;47.554;7.844;2023-04-06T06:45:56;5.68;;;4.40;;
50789;SDS011;37287;47.554;7.844;2023-04-06T06:48:25;7.07;;;4.88;;
50789;SDS011;37287;47.554;7.844;2023-04-06T06:50:53;5.82;;;4.28;;
50789;SDS011;37287;47.554;7.844;2023-04-06T06:53:20;4.95;;;4.05;;
50789;SDS011;37287;47.554;7.844;2023-04-06T06:55:47;5.95;;;4.72;;
50789;SDS011;37287;47.554;7.844;2023-04-06T06:58:19;6.38;;;4.55;;
50789;SDS011;37287;47.554;7.844;2023-04-06T07:00:46;7.32;;;5.07;;
50789;SDS011;37287;47.554;7.844;2023-04-06T07:03:13;6.78;;;5.07;;
50789;SDS011;37287;47.554;7.844;2023-04-06T07:05:46;8.10;;;5.32;;
50789;SDS011;37287;47.554;7.844;2023-04-06T07:08:23;7.07;;;5.10;;
50789;SDS011;37287;47.554;7.844;2023-04-06T07:10:50;7.50;;;5.13;;
50789;SDS011;37287;47.554;7.844;2023-04-06T07:13:24;7.38;;;4.90;;
50789;SDS011;37287;47.554;7.844;2023-04-06T07:15:53;5.65;;;4.50;;
50789;SDS011;37287;47.554;7.844;2023-04-06T07:18:23;7.45;;;4.28;;
50789;SDS011;37287;47.554;7.844;2023-04-06T07:20:49;8.57;;;5.20;;
50789;SDS011;37287;47.554;7.844;2023-04-06T07:23:16;6.28;;;4.93;;
50789;SDS011;37287;47.554;7.844;2023-04-06T07:25:43;6.70;;;4.50;;
50789;SDS011;37287;47.554;7.844;2023-04-06T07:28:09;6.38;;;4.90;;
50789;SDS011;37287;47.554;7.844;2023-04-06T07:30:38;7.95;;;5.20;;
50789;SDS011;37287;47.554;7.844;2023-04-06T07:33:05;9.90;;;5.10;;
50789;SDS011;37287;47.554;7.844;2023-04-06T07:35:32;7.38;;;4.63;;
50789;SDS011;37287;47.554;7.844;2023-04-06T07:38:01;6.32;;;5.10;;
50789;SDS011;37287;47.554;7.844;2023-04-06T07:40:27;5.72;;;4.18;;
50789;SDS011;37287;47.554;7.844;2023-04-06T07:42:54;6.65;;;4.18;;
50789;SDS011;37287;47.554;7.844;2023-04-06T07:45:23;5.55;;;4.15;;
50789;SDS011;37287;47.554;7.844;2023-04-06T07:47:50;6.15;;;4.60;;
50789;SDS011;37287;47.554;7.844;2023-04-06T07:50:16;7.60;;;4.97;;
50789;SDS011;37287;47.554;7.844;2023-04-06T07:52:45;6.95;;;5.53;;
50789;SDS011;37287;47.554;7.844;2023-04-06T07:55:12;8.00;;;5.20;;
50789;SDS011;37287;47.554;7.844;2023-04-06T07:57:41;7.07;;;5.38;;
50789;SDS011;37287;47.554;7.844;2023-04-06T08:00:07;5.75;;;4.70;;
50789;SDS011;37287;47.554;7.844;2023-04-06T08:02:35;6.28;;;4.82;;
50789;SDS011;37287;47.554;7.844;2023-04-06T08:05:02;6.30;;;4.80;;
50789;SDS011;37287;47.554;7.844;2023-04-06T08:07:31;4.90;;;4.32;;
50789;SDS011;37287;47.554;7.844;2023-04-06T08:09:58;6.65;;;4.18;;
50789;SDS011;37287;47.554;7.844;2023-04-06T08:12:24;7.00;;;4.55;;
50789;SDS011;37287;47.554;7.844;2023-04-06T08:14:53;10.77;;;4.72;;
50789;SDS011;37287;47.554;7.844;2023-04-06T08:17:19;6.40;;;4.07;;
50789;SDS011;37287;47.554;7.844;2023-04-06T08:19:46;5.43;;;4.28;;
50789;SDS011;37287;47.554;7.844;2023-04-06T08:22:20;11.65;;;4.00;;
50789;SDS011;37287;47.554;7.844;2023-04-06T08:24:47;5.55;;;3.92;;
50789;SDS011;37287;47.554;7.844;2023-04-06T08:27:13;5.47;;;3.90;;
50789;SDS011;37287;47.554;7.844;2023-04-06T08:29:45;3.80;;;3.40;;
50789;SDS011;37287;47.554;7.844;2023-04-06T08:32:12;3.75;;;3.33;;
50789;SDS011;37287;47.554;7.844;2023-04-06T08:34:42;3.70;;;3.25;;
50789;SDS011;37287;47.554;7.844;2023-04-06T08:37:08;4.10;;;3.25;;
50789;SDS011;37287;47.554;7.844;2023-04-06T08:39:35;4.43;;;3.60;;
50789;SDS011;37287;47.554;7.844;2023-04-06T08:42:02;3.70;;;3.38;;
50789;SDS011;37287;47.554;7.844;2023-04-06T08:44:31;3.90;;;3.33;;
50789;SDS011;37287;47.554;7.844;2023-04-06T08:46:59;5.43;;;3.53;;
50789;SDS011;37287;47.554;7.844;2023-04-06T08:49:26;5.82;;;3.53;;
50789;SDS011;37287;47.554;7.844;2023-04-06T08:51:54;4.72;;;3.45;;
50789;SDS011;37287;47.554;7.844;2023-04-06T08:54:21;4.82;;;4.28;;
50789;SDS011;37287;47.554;7.844;2023-04-06T08:56:48;5.13;;;3.78;;
50789;SDS011;37287;47.554;7.844;2023-04-06T08:59:15;4.85;;;3.88;;
50789;SDS011;37287;47.554;7.844;2023-04-06T09:01:42;5.10;;;3.30;;
50789;SDS011;37287;47.554;7.844;2023-04-06T09:04:12;3.72;;;3.00;;
50789;SDS011;37287;47.554;7.844;2023-04-06T09:06:40;4.10;;;3.15;;
50789;SDS011;37287;47.554;7.844;2023-04-06T09:09:07;4.05;;;3.30;;
50789;SDS011;37287;47.554;7.844;2023-04-06T09:11:50;3.08;;;2.78;;
50789;SDS011;37287;47.554;7.844;2023-04-06T09:14:32;3.90;;;3.40;;
50789;SDS011;37287;47.554;7.844;2023-04-06T09:19:31;4.60;;;3.47;;
50789;SDS011;37287;47.554;7.844;2023-04-06T09:22:04;4.55;;;3.55;;
50789;SDS011;37287;47.554;7.844;2023-04-06T09:24:42;3.72;;;2.97;;
50789;SDS011;37287;47.554;7.844;2023-04-06T09:27:10;3.83;;;3.00;;
50789;SDS011;37287;47.554;7.844;2023-04-06T09:29:40;3.65;;;2.75;;
50789;SDS011;37287;47.554;7.844;2023-04-06T09:32:08;3.20;;;2.90;;
50789;SDS011;37287;47.554;7.844;2023-04-06T09:37:13;7.25;;;2.70;;
50789;SDS011;37287;47.554;7.844;2023-04-06T09:39:46;4.13;;;2.75;;
50789;SDS011;37287;47.554;7.844;2023-04-06T09:42:24;3.60;;;3.03;;
50789;SDS011;37287;47.554;7.844;2023-04-06T09:44:51;4.03;;;3.22;;
50789;SDS011;37287;47.554;7.844;2023-04-06T09:47:18;4.85;;;3.20;;
50789;SDS011;37287;47.554;7.844;2023-04-06T09:49:47;3.85;;;3.20;;
50789;SDS011;37287;47.554;7.844;2023-04-06T09:52:18;5.10;;;3.00;;
50789;SDS011;37287;47.554;7.844;2023-04-06T09:54:48;4.25;;;3.03;;
50789;SDS011;37287;47.554;7.844;2023-04-06T10:00:03;3.42;;;3.13;;
50789;SDS011;37287;47.554;7.844;2023-04-06T10:05:57;3.58;;;3.05;;
50789;SDS011;37287;47.554;7.844;2023-04-06T10:08:27;7.03;;;3.90;;
50789;SDS011;37287;47.554;7.844;2023-04-06T10:10:58;5.90;;;3.63;;
50789;SDS011;37287;47.554;7.844;2023-04-06T10:13:25;3.35;;;3.05;;
50789;SDS011;37287;47.554;7.844;2023-04-06T10:15:52;4.55;;;3.53;;
50789;SDS011;37287;47.554;7.844;2023-04-06T10:18:26;4.35;;;3.17;;
50789;SDS011;37287;47.554;7.844;2023-04-06T10:21:01;4.88;;;3.03;;
50789;SDS011;37287;47.554;7.844;2023-04-06T10:23:35;5.32;;;3.83;;
50789;SDS011;37287;47.554;7.844;2023-04-06T10:26:04;3.47;;;2.92;;
50789;SDS011;37287;47.554;7.844;2023-04-06T10:28:45;5.03;;;3.53;;
50789;SDS011;37287;47.554;7.844;2023-04-06T10:31:12;5.18;;;2.85;;
50789;SDS011;37287;47.554;7.844;2023-04-06T10:34:04;4.55;;;2.95;;
50789;SDS011;37287;47.554;7.844;2023-04-06T10:36:33;4.38;;;3.33;;
50789;SDS011;37287;47.554;7.844;2023-04-06T10:39:02;5.85;;;4.00;;
50789;SDS011;37287;47.554;7.844;2023-04-06T10:41:34;7.15;;;4.07;;
50789;SDS011;37287;47.554;7.844;2023-04-06T10:44:19;4.07;;;3.22;;
50789;SDS011;37287;47.554;7.844;2023-04-06T10:46:57;4.05;;;3.33;;
50789;SDS011;37287;47.554;7.844;2023-04-06T10:49:30;4.82;;;3.42;;
50789;SDS011;37287;47.554;7.844;2023-04-06T10:51:57;4.40;;;2.92;;
50789;SDS011;37287;47.554;7.844;2023-04-06T10:54:26;7.35;;;3.60;;
50789;SDS011;37287;47.554;7.844;2023-04-06T10:56:55;4.97;;;3.50;;
50789;SDS011;37287;47.554;7.844;2023-04-06T10:59:22;4.25;;;3.20;;
50789;SDS011;37287;47.554;7.844;2023-04-06T11:01:51;3.38;;;2.72;;
50789;SDS011;37287;47.554;7.844;2023-04-06T11:04:19;3.95;;;3.03;;
50789;SDS011;37287;47.554;7.844;2023-04-06T11:06:47;4.20;;;2.75;;
50789;SDS011;37287;47.554;7.844;2023-04-06T11:09:24;3.28;;;2.90;;
50789;SDS011;37287;47.554;7.844;2023-04-06T11:11:52;3.85;;;2.97;;
50789;SDS011;37287;47.554;7.844;2023-04-06T11:14:19;3.38;;;2.78;;
50789;SDS011;37287;47.554;7.844;2023-04-06T11:16:46;3.25;;;2.88;;
50789;SDS011;37287;47.554;7.844;2023-04-06T11:19:16;6.00;;;3.85;;
50789;SDS011;37287;47.554;7.844;2023-04-06T11:21:45;3.70;;;3.00;;
50789;SDS011;37287;47.554;7.844;2023-04-06T11:24:16;4.35;;;3.50;;
50789;SDS011;37287;47.554;7.844;2023-04-06T11:26:49;6.13;;;2.70;;
50789;SDS011;37287;47.554;7.844;2023-04-06T11:29:18;3.97;;;3.10;;
50789;SDS011;37287;47.554;7.844;2023-04-06T11:31:49;5.53;;;3.50;;
50789;SDS011;37287;47.554;7.844;2023-04-06T11:34:20;4.28;;;3.13;;
50789;SDS011;37287;47.554;7.844;2023-04-06T11:36:49;2.95;;;2.53;;
50789;SDS011;37287;47.554;7.844;2023-04-06T11:39:22;3.63;;;2.88;;
50789;SDS011;37287;47.554;7.844;2023-04-06T11:41:50;4.50;;;3.25;;
50789;SDS011;37287;47.554;7.844;2023-04-06T11:47:07;4.28;;;3.20;;
50789;SDS011;37287;47.554;7.844;2023-04-06T11:49:38;3.17;;;2.78;;
50789;SDS011;37287;47.554;7.844;2023-04-06T11:52:16;3.03;;;2.65;;
50789;SDS011;37287;47.554;7.844;2023-04-06T11:54:49;4.88;;;3.70;;
50789;SDS011;37287;47.554;7.844;2023-04-06T11:57:23;4.95;;;3.95;;
50789;SDS011;37287;47.554;7.844;2023-04-06T11:59:54;3.22;;;2.88;;
50789;SDS011;37287;47.554;7.844;2023-04-06T12:02:21;3.35;;;2.83;;
50789;SDS011;37287;47.554;7.844;2023-04-06T12:04:48;3.88;;;3.10;;
50789;SDS011;37287;47.554;7.844;2023-04-06T12:07:15;3.13;;;2.80;;
50789;SDS011;37287;47.554;7.844;2023-04-06T12:09:42;3.83;;;3.03;;
50789;SDS011;37287;47.554;7.844;2023-04-06T12:12:09;3.97;;;3.40;;
50789;SDS011;37287;47.554;7.844;2023-04-06T12:14:38;3.70;;;3.35;;
50789;SDS011;37287;47.554;7.844;2023-04-06T12:17:05;5.13;;;3.17;;
50789;SDS011;37287;47.554;7.844;2023-04-06T12:19:33;5.07;;;3.45;;
50789;SDS011;37287;47.554;7.844;2023-04-06T12:22:00;5.00;;;3.45;;
50789;SDS011;37287;47.554;7.844;2023-04-06T12:24:27;3.47;;;2.85;;
50789;SDS011;37287;47.554;7.844;2023-04-06T12:26:54;2.65;;;2.40;;
50789;SDS011;37287;47.554;7.844;2023-04-06T12:29:34;4.93;;;2.70;;
50789;SDS011;37287;47.554;7.844;2023-04-06T12:32:06;2.70;;;2.47;;
50789;SDS011;37287;47.554;7.844;2023-04-06T12:34:37;2.67;;;2.25;;
50789;SDS011;37287;47.554;7.844;2023-04-06T12:37:04;3.10;;;2.47;;
50789;SDS011;37287;47.554;7.844;2023-04-06T12:39:30;4.15;;;3.10;;
50789;SDS011;37287;47.554;7.844;2023-04-06T12:41:57;4.95;;;4.00;;
50789;SDS011;37287;47.554;7.844;2023-04-06T12:44:24;3.28;;;2.70;;
50789;SDS011;37287;47.554;7.844;2023-04-06T12:46:54;3.75;;;2.72;;
50789;SDS011;37287;47.554;7.844;2023-04-06T12:49:23;3.05;;;2.40;;
50789;SDS011;37287;47.554;7.844;2023-04-06T12:51:50;2.75;;;2.40;;
50789;SDS011;37287;47.554;7.844;2023-04-06T12:54:16;3.20;;;2.50;;
50789;SDS011;37287;47.554;7.844;2023-04-06T12:56:43;3.35;;;2.47;;
50789;SDS011;37287;47.554;7.844;2023-04-06T12:59:11;2.97;;;2.40;;
50789;SDS011;37287;47.554;7.844;2023-04-06T13:01:37;4.63;;;2.95;;
50789;SDS011;37287;47.554;7.844;2023-04-06T13:04:06;2.67;;;2.30;;
50789;SDS011;37287;47.554;7.844;2023-04-06T13:06:32;2.97;;;2.42;;
50789;SDS011;37287;47.554;7.844;2023-04-06T13:08:59;3.13;;;2.10;;
50789;SDS011;37287;47.554;7.844;2023-04-06T13:11:30;2.45;;;2.25;;
50789;SDS011;37287;47.554;7.844;2023-04-06T13:13:57;3.28;;;2.20;;
50789;SDS011;37287;47.554;7.844;2023-04-06T13:16:23;2.28;;;2.03;;
50789;SDS011;37287;47.554;7.844;2023-04-06T13:18:50;2.67;;;2.33;;
50789;SDS011;37287;47.554;7.844;2023-04-06T13:21:17;5.90;;;2.83;;
50789;SDS011;37287;47.554;7.844;2023-04-06T13:23:43;5.60;;;3.17;;
50789;SDS011;37287;47.554;7.844;2023-04-06T13:26:12;3.80;;;2.67;;
50789;SDS011;37287;47.554;7.844;2023-04-06T13:28:40;3.22;;;2.45;;
50789;SDS011;37287;47.554;7.844;2023-04-06T13:31:10;2.80;;;2.55;;
50789;SDS011;37287;47.554;7.844;2023-04-06T13:33:37;2.35;;;1.92;;
50789;SDS011;37287;47.554;7.844;2023-04-06T13:36:07;2.70;;;2.30;;
50789;SDS011;37287;47.554;7.844;2023-04-06T13:38:34;3.50;;;2.58;;
50789;SDS011;37287;47.554;7.844;2023-04-06T13:41:05;3.35;;;2.35;;
50789;SDS011;37287;47.554;7.844;2023-04-06T13:43:32;3.67;;;2.65;;
50789;SDS011;37287;47.554;7.844;2023-04-06T13:45:59;5.72;;;2.95;;
50789;SDS011;37287;47.554;7.844;2023-04-06T13:48:29;3.90;;;3.20;;
50789;SDS011;37287;47.554;7.844;2023-04-06T13:50:57;4.95;;;3.33;;
50789;SDS011;37287;47.554;7.844;2023-04-06T13:53:33;4.40;;;3.40;;
50789;SDS011;37287;47.554;7.844;2023-04-06T13:56:00;5.63;;;3.50;;
50789;SDS011;37287;47.554;7.844;2023-04-06T13:58:29;3.80;;;3.35;;
50789;SDS011;37287;47.554;7.844;2023-04-06T14:01:01;5.65;;;3.97;;
50789;SDS011;37287;47.554;7.844;2023-04-06T14:03:29;5.20;;;3.70;;
50789;SDS011;37287;47.554;7.844;2023-04-06T14:05:57;8.00;;;3.20;;
50789;SDS011;37287;47.554;7.844;2023-04-06T14:08:34;6.07;;;3.78;;
50789;SDS011;37287;47.554;7.844;2023-04-06T14:11:01;3.70;;;3.13;;
50789;SDS011;37287;47.554;7.844;2023-04-06T14:13:27;5.20;;;3.15;;
50789;SDS011;37287;47.554;7.844;2023-04-06T14:15:54;5.65;;;3.30;;
50789;SDS011;37287;47.554;7.844;2023-04-06T14:18:23;4.60;;;3.55;;
50789;SDS011;37287;47.554;7.844;2023-04-06T14:20:54;8.63;;;5.22;;
50789;SDS011;37287;47.554;7.844;2023-04-06T14:23:22;6.20;;;4.53;;
50789;SDS011;37287;47.554;7.844;2023-04-06T14:25:48;7.97;;;5.32;;
50789;SDS011;37287;47.554;7.844;2023-04-06T14:28:15;6.90;;;5.10;;
50789;SDS011;37287;47.554;7.844;2023-04-06T14:30:42;7.57;;;5.82;;
50789;SDS011;37287;47.554;7.844;2023-04-06T14:33:10;7.18;;;4.75;;
50789;SDS011;37287;47.554;7.844;2023-04-06T14:35:38;4.88;;;4.15;;
50789;SDS011;37287;47.554;7.844;2023-04-06T14:38:05;5.50;;;3.67;;
50789;SDS011;37287;47.554;7.844;2023-04-06T14:40:34;6.18;;;4.10;;
50789;SDS011;37287;47.554;7.844;2023-04-06T14:43:01;4.72;;;3.90;;
50789;SDS011;37287;47.554;7.844;2023-04-06T14:45:27;5.32;;;3.83;;
50789;SDS011;37287;47.554;7.844;2023-04-06T14:48:00;6.50;;;4.40;;
50789;SDS011;37287;47.554;7.844;2023-04-06T14:50:32;7.43;;;3.38;;
50789;SDS011;37287;47.554;7.844;2023-04-06T14:52:59;4.93;;;3.75;;
50789;SDS011;37287;47.554;7.844;2023-04-06T14:55:27;4.72;;;3.20;;
50789;SDS011;37287;47.554;7.844;2023-04-06T14:57:53;4.55;;;3.60;;
50789;SDS011;37287;47.554;7.844;2023-04-06T15:00:20;3.00;;;2.55;;
50789;SDS011;37287;47.554;7.844;2023-04-06T15:02:58;4.85;;;2.97;;
50789;SDS011;37287;47.554;7.844;2023-04-06T15:05:25;5.20;;;3.33;;
50789;SDS011;37287;47.554;7.844;2023-04-06T15:07:51;3.85;;;3.35;;
50789;SDS011;37287;47.554;7.844;2023-04-06T15:10:18;7.30;;;3.55;;
50789;SDS011;37287;47.554;7.844;2023-04-06T15:12:44;3.55;;;3.08;;